Time;durP1;ratioP1;P1;durP2;ratioP2;P2;SDS_P1;SDS_P2;PMS_P1;PMS_P2;Temp;Humidity;BMP_temperature;BMP_pressure;BME280_temperature;BME280_humidity;BME280_pressure;Samples;Min_cycle;Max_cycle;Signal;HPM_P1;HPM_P2
2021/12/25 00:20:41;;;;;;;9.28;4.62;;;;;;;1.11;92.85;97743.80;4072054;87;21210;-88
2021/12/25 00:33:51;;;;;;;10.88;4.97;;;;;;;1.06;92.97;97772.34;4078943;85;21046;-87
2021/12/25 00:39:39;;;;;;;8.45;4.37;;;;;;;1.02;93.23;97781.66;4071750;85;21038;-89
2021/12/25 00:45:40;;;;;;;7.33;4.35;;;;;;;1.00;93.37;97779.09;4075914;85;21623;-89
2021/12/25 00:51:42;;;;;;;7.12;4.15;;;;;;;0.96;93.42;97807.84;4071808;85;21080;-89
2021/12/25 00:57:43;;;;;;;6.70;3.95;;;;;;;0.98;93.92;97810.98;4064125;85;21075;-87
2021/12/25 01:03:46;;;;;;;7.65;4.67;;;;;;;0.95;93.88;97821.09;4073535;85;22435;-88
2021/12/25 01:09:48;;;;;;;10.82;5.35;;;;;;;0.90;94.03;97830.75;4077294;85;21057;-87
2021/12/25 01:22:24;;;;;;;6.67;4.72;;;;;;;0.88;94.19;97866.67;4018036;87;21084;-88
2021/12/25 01:53:28;;;;;;;15.45;7.40;;;;;;;0.85;95.07;97884.86;3988131;86;21680;-88
2021/12/25 01:59:30;;;;;;;10.68;5.92;;;;;;;0.78;94.96;97889.50;4009984;87;21023;-89
2021/12/25 02:05:32;;;;;;;12.93;7.15;;;;;;;0.75;95.22;97894.19;4015699;86;21537;-89
2021/12/25 02:11:34;;;;;;;12.33;6.50;;;;;;;0.68;95.12;97880.51;4022661;86;21130;-88
2021/12/25 02:17:58;;;;;;;12.85;7.92;;;;;;;0.67;95.47;97889.72;4019751;86;21088;-89
2021/12/25 02:23:50;;;;;;;13.03;6.70;;;;;;;0.68;95.50;97914.17;3990716;87;21070;-89
2021/12/25 02:29:51;;;;;;;11.22;7.28;;;;;;;0.73;95.59;97917.20;4025344;86;21057;-87
2021/12/25 02:35:52;;;;;;;13.98;8.25;;;;;;;0.73;95.59;97924.73;4020992;86;21100;-88
2021/12/25 02:41:54;;;;;;;14.38;8.40;;;;;;;0.68;95.62;97929.55;4025205;86;21104;-88
2021/12/25 02:47:59;;;;;;;17.85;8.30;;;;;;;0.68;95.69;97947.05;4024139;86;21097;-88
2021/12/25 02:54:00;;;;;;;14.45;8.28;;;;;;;0.70;95.99;97954.24;4020823;87;21089;-88
2021/12/25 03:00:08;;;;;;;13.43;8.28;;;;;;;0.69;95.89;97964.22;4017428;87;21070;-87
2021/12/25 03:06:10;;;;;;;13.08;8.75;;;;;;;0.66;95.98;97976.25;4037222;86;21377;-89
2021/12/25 03:12:14;;;;;;;18.30;10.53;;;;;;;0.67;96.13;97983.99;4025796;87;21039;-88
2021/12/25 03:18:19;;;;;;;17.85;10.20;;;;;;;0.69;96.18;97993.09;4002185;87;21630;-88
2021/12/25 03:24:21;;;;;;;13.90;7.70;;;;;;;0.69;96.21;97997.13;4014204;87;21543;-88
2021/12/25 03:30:24;;;;;;;16.75;9.78;;;;;;;0.74;96.49;97990.15;4013208;87;21007;-88
2021/12/25 03:36:25;;;;;;;19.20;9.80;;;;;;;0.74;96.46;98001.72;4008584;87;21060;-88
2021/12/25 03:42:27;;;;;;;14.70;9.63;;;;;;;0.76;96.62;98017.00;4006329;87;21629;-88
2021/12/25 03:48:45;;;;;;;18.02;10.03;;;;;;;0.82;96.75;98024.29;4014679;87;21090;-88
2021/12/25 04:01:28;;;;;;;14.05;8.45;;;;;;;0.48;96.26;97991.80;4017250;87;21137;-88
2021/12/25 04:13:35;;;;;;;13.95;8.50;;;;;;;0.52;96.88;98047.14;4006967;87;21113;-88
2021/12/25 04:20:09;;;;;;;6.08;4.60;;;;;;;0.52;96.51;98057.91;4025337;87;21157;-87
2021/12/25 04:26:12;;;;;;;11.12;5.53;;;;;;;0.35;96.17;98085.76;4016584;87;21060;-87
2021/12/25 04:33:11;;;;;;;5.33;2.70;;;;;;;-0.48;97.00;98115.84;4024318;87;21081;-88
2021/12/25 05:06:14;;;;;;;5.53;2.90;;;;;;;-0.88;96.17;98184.47;3887567;90;21675;-87
2021/12/25 05:12:17;;;;;;;8.08;3.60;;;;;;;-0.98;95.59;98184.80;3902748;88;21067;-87
2021/12/25 05:25:10;;;;;;;5.75;3.83;;;;;;;-1.02;95.32;98205.90;3993547;87;21123;-88
2021/12/25 05:31:15;;;;;;;7.87;3.75;;;;;;;-1.20;95.15;98198.41;4009648;87;21059;-87
2021/12/25 05:37:59;;;;;;;13.83;5.12;;;;;;;-1.22;94.89;98201.95;3787156;92;21816;-87
2021/12/25 05:58:21;;;;;;;13.32;5.08;;;;;;;-1.48;94.72;98247.36;3979878;88;21061;-87
2021/12/25 06:18:58;;;;;;;21.87;7.80;;;;;;;-1.57;95.51;98295.11;3998145;87;21090;-86
2021/12/25 06:32:28;;;;;;;12.17;4.00;;;;;;;-1.63;94.44;98309.00;3911483;88;21106;-86
2021/12/25 07:08:22;;;;;;;6.65;2.62;;;;;;;-2.02;94.00;98366.12;4001497;87;21082;-85
2021/12/25 07:35:36;;;;;;;5.63;3.50;;;;;;;-2.85;93.80;98398.19;4031128;86;21602;-86
2021/12/25 07:41:58;;;;;;;7.33;2.87;;;;;;;-2.94;93.83;98418.75;3991953;88;21143;-85
2021/12/25 07:48:03;;;;;;;5.93;2.90;;;;;;;-3.02;93.67;98429.40;3999389;88;21399;-86
2021/12/25 07:54:27;;;;;;;4.87;3.27;;;;;;;-3.22;93.52;98435.42;4016139;87;21844;-85
2021/12/25 08:00:29;;;;;;;17.53;6.50;;;;;;;-3.26;93.62;98437.66;3983714;87;21014;-86
2021/12/25 08:06:39;;;;;;;169.33;57.13;;;;;;;-3.25;93.60;98448.06;3954205;88;21079;-85
2021/12/25 08:13:17;;;;;;;124.67;41.40;;;;;;;-3.12;93.57;98460.39;3991996;88;21088;-84
2021/12/25 08:19:49;;;;;;;14.03;6.03;;;;;;;-2.92;94.15;98465.31;4012469;88;21126;-85
2021/12/25 08:40:31;;;;;;;7.27;3.00;;;;;;;-3.06;93.09;98466.69;3840970;92;21892;-86
2021/12/25 08:46:55;;;;;;;16.73;5.73;;;;;;;-2.96;92.92;98472.38;3858560;92;21085;-86
2021/12/25 09:14:57;;;;;;;5.77;3.07;;;;;;;-2.66;92.16;98486.47;3740122;92;21155;-87
2021/12/25 09:34:49;;;;;;;8.60;4.10;;;;;;;-2.60;91.33;98491.96;3888113;90;21075;-86
2021/12/25 09:41:13;;;;;;;6.70;3.50;;;;;;;-2.56;91.17;98492.39;3889821;90;21624;-85
2021/12/25 09:47:29;;;;;;;10.53;5.13;;;;;;;-2.57;90.92;98494.03;3892450;89;21116;-87
2021/12/25 09:53:32;;;;;;;17.45;6.17;;;;;;;-2.59;90.74;98490.32;3865165;91;21047;-86
2021/12/25 09:59:54;;;;;;;21.63;6.90;;;;;;;-2.55;90.28;98487.27;3883016;89;22318;-87
2021/12/25 10:12:58;;;;;;;35.13;11.93;;;;;;;-2.31;90.34;98479.76;3870582;91;22132;-85
2021/12/25 10:19:20;;;;;;;18.13;8.20;;;;;;;-2.21;90.39;98455.37;3910342;91;21571;-85
2021/12/25 10:25:53;;;;;;;17.30;7.33;;;;;;;-2.18;90.12;98456.67;3877949;91;21132;-85
2021/12/25 10:39:45;;;;;;;8.50;4.83;;;;;;;-2.41;88.64;98465.23;3787375;89;21195;-85
2021/12/25 11:06:40;;;;;;;15.20;6.67;;;;;;;-2.50;88.89;98476.44;3927181;90;21642;-86
2021/12/25 11:12:41;;;;;;;14.87;5.70;;;;;;;-2.51;88.51;98474.06;3911314;89;21065;-86
2021/12/25 11:25:27;;;;;;;12.13;4.83;;;;;;;-2.45;88.13;98488.94;3888126;90;21129;-86
2021/12/25 12:12:50;;;;;;;9.37;4.00;;;;;;;-2.51;85.96;98486.13;3976551;88;21378;-86
2021/12/25 12:26:49;;;;;;;;;;;;;;;-2.60;85.50;98495.98;4024468;88;21069;-87
2021/12/25 12:32:52;;;;;;;10.40;4.23;;;;;;;-2.57;84.73;98500.20;3998916;88;20120;-86
2021/12/25 12:47:02;;;;;;;15.60;5.90;;;;;;;-2.71;84.58;98492.70;4069560;86;21163;-87
2021/12/25 13:00:27;;;;;;;7.30;3.30;;;;;;;-2.70;84.23;98510.38;4077201;85;21155;-87
2021/12/25 13:28:13;;;;;;;12.30;4.53;;;;;;;-2.90;83.29;98549.65;3968768;86;21148;-87
2021/12/25 13:55:35;;;;;;;15.80;5.27;;;;;;;-3.34;82.62;98572.97;4035957;86;21053;-87
2021/12/25 14:01:38;;;;;;;11.70;4.60;;;;;;;-3.41;82.63;98563.72;3978292;86;21589;-86
2021/12/25 14:07:58;;;;;;;12.00;4.57;;;;;;;-3.48;82.11;98602.12;4000291;87;21065;-86
2021/12/25 14:14:10;;;;;;;13.80;4.60;;;;;;;-3.62;82.01;98601.28;4013065;87;21112;-86
2021/12/25 14:27:38;;;;;;;16.30;5.73;;;;;;;-3.74;81.97;98609.75;3946344;87;21158;-85
2021/12/25 14:47:50;;;;;;;18.73;6.50;;;;;;;-3.83;81.84;98632.09;3950428;90;21090;-85
2021/12/25 14:54:17;;;;;;;22.17;7.47;;;;;;;-3.88;81.77;98634.30;3890819;90;21033;-85
2021/12/25 15:07:57;;;;;;;48.93;18.57;;;;;;;-3.88;81.86;98611.58;3899939;90;21123;-85
2021/12/25 15:54:31;;;;;;;14.23;6.70;;;;;;;-4.12;81.84;98665.65;3844829;90;21274;-85
2021/12/25 16:07:51;;;;;;;19.43;7.70;;;;;;;-4.13;81.96;98670.75;3842699;90;21075;-85
2021/12/25 16:14:24;;;;;;;24.60;9.00;;;;;;;-4.14;82.21;98681.20;3917520;88;21014;-85
2021/12/25 16:20:44;;;;;;;29.10;9.13;;;;;;;-4.14;82.08;98680.39;4048535;88;21082;-85
2021/12/25 16:34:02;;;;;;;25.10;11.33;;;;;;;-4.15;82.21;98688.95;3760774;91;21239;-85
2021/12/25 16:40:31;;;;;;;36.17;14.07;;;;;;;-4.14;82.42;98687.08;3693969;95;21144;-84
2021/12/25 16:46:40;;;;;;;36.63;14.33;;;;;;;-4.17;82.42;98686.32;3733077;90;21647;-85
2021/12/25 16:52:42;;;;;;;38.73;13.53;;;;;;;-4.24;82.37;98681.31;3738139;88;21200;-85
2021/12/25 16:58:47;;;;;;;36.33;14.63;;;;;;;-4.25;82.47;98698.98;3983704;89;21079;-84
2021/12/25 17:04:48;;;;;;;37.50;14.23;;;;;;;-4.27;82.25;98698.45;3965623;89;21081;-85
2021/12/25 17:10:53;;;;;;;47.43;21.80;;;;;;;-4.27;82.26;98713.16;3844003;88;9999761;-85
2021/12/25 17:16:54;;;;;;;50.10;20.33;;;;;;;-4.30;82.26;98713.20;3968917;89;21022;-85
2021/12/25 17:29:36;;;;;;;47.73;19.93;;;;;;;-4.34;82.28;98715.39;3956732;88;21091;-86
2021/12/25 17:35:56;;;;;;;28.93;12.07;;;;;;;-4.36;82.09;98722.89;3952031;89;22275;-85
2021/12/25 17:42:00;;;;;;;30.30;12.10;;;;;;;-4.40;82.01;98729.34;3953554;88;21024;-85
2021/12/25 17:48:08;;;;;;;27.87;11.33;;;;;;;-4.44;82.02;98732.86;3975496;87;21091;-85
2021/12/25 17:54:14;;;;;;;39.40;13.13;;;;;;;-4.45;82.39;98745.45;4018724;87;21452;-85
2021/12/25 18:00:24;;;;;;;41.98;17.92;;;;;;;-4.43;82.47;98759.30;4017660;88;21077;-86
2021/12/25 18:06:25;;;;;;;82.67;29.87;;;;;;;-4.48;82.56;98761.24;4002424;88;21094;-86
2021/12/25 18:12:32;;;;;;;53.20;19.83;;;;;;;-4.50;82.43;98751.37;3907348;88;10000005;-85
2021/12/25 18:18:34;;;;;;;38.63;15.87;;;;;;;-4.54;82.47;98747.12;4017468;88;21142;-85
2021/12/25 18:24:54;;;;;;;34.73;15.27;;;;;;;-4.54;82.34;98769.05;4011872;87;22015;-84
2021/12/25 18:31:05;;;;;;;38.17;14.83;;;;;;;-4.54;82.21;98773.84;4011036;87;21023;-86
2021/12/25 18:37:20;;;;;;;34.27;14.07;;;;;;;-4.57;82.41;98770.40;4014768;88;21114;-85
2021/12/25 18:43:23;;;;;;;36.93;15.43;;;;;;;-4.58;82.40;98759.47;4013157;87;21132;-86
2021/12/25 18:49:26;;;;;;;33.80;14.47;;;;;;;-4.67;82.39;98760.36;3958292;88;21103;-86
2021/12/25 18:55:31;;;;;;;33.13;16.20;;;;;;;-4.68;82.46;98752.09;3954828;89;21635;-85
2021/12/25 19:01:33;;;;;;;51.37;19.35;;;;;;;-4.68;82.45;98746.20;3965042;88;22167;-85
2021/12/25 19:07:37;;;;;;;43.70;18.57;;;;;;;-4.71;82.51;98748.09;3968838;88;21098;-85
2021/12/25 19:13:41;;;;;;;46.27;19.70;;;;;;;-4.70;82.46;98748.38;3956747;88;21157;-85
2021/12/25 19:19:42;;;;;;;44.37;18.47;;;;;;;-4.81;82.39;98750.33;3977447;89;21637;-85
2021/12/25 19:25:44;;;;;;;55.20;23.47;;;;;;;-4.85;82.30;98753.84;3964859;88;21054;-85
2021/12/25 19:31:49;;;;;;;61.50;26.97;;;;;;;-4.93;82.42;98755.25;3966865;89;21097;-84
2021/12/25 19:37:52;;;;;;;137.37;51.10;;;;;;;-5.03;82.22;98762.00;3956507;89;21067;-85
2021/12/25 19:43:54;;;;;;;126.43;50.30;;;;;;;-5.11;82.51;98757.28;3960850;88;21106;-84
2021/12/25 19:49:57;;;;;;;91.90;34.33;;;;;;;-5.16;82.42;98771.19;3959429;88;21620;-84
2021/12/25 19:56:01;;;;;;;46.70;20.13;;;;;;;-5.31;82.31;98760.64;3968070;88;21101;-85
2021/12/25 20:02:04;;;;;;;63.87;26.90;;;;;;;-5.43;82.57;98770.31;3959482;89;21048;-83
2021/12/25 20:08:08;;;;;;;62.80;24.13;;;;;;;-5.53;82.59;98777.03;3974678;89;21843;-83
2021/12/25 20:14:09;;;;;;;55.80;23.57;;;;;;;-5.63;82.61;98778.44;3965929;88;21055;-83
2021/12/25 20:20:21;;;;;;;57.93;24.13;;;;;;;-5.77;82.61;98776.64;3974134;89;21066;-84
2021/12/25 20:26:22;;;;;;;66.03;26.37;;;;;;;-6.07;82.24;98776.80;3956251;88;21137;-82
2021/12/25 20:32:23;;;;;;;58.87;26.60;;;;;;;-6.25;82.61;98783.55;3960361;88;21117;-83
2021/12/25 20:38:25;;;;;;;62.77;25.83;;;;;;;-6.47;82.62;98778.53;3967648;88;21561;-83
2021/12/25 20:50:41;;;;;;;75.87;31.87;;;;;;;-6.90;82.51;98788.46;3944563;89;21146;-83
2021/12/25 20:56:43;;;;;;;81.25;33.35;;;;;;;-7.03;82.82;98786.33;3946373;88;21176;-83
2021/12/25 21:02:47;;;;;;;93.77;36.47;;;;;;;-7.22;82.63;98793.78;3947662;88;21589;-82
2021/12/25 21:08:48;;;;;;;87.20;32.97;;;;;;;-7.43;82.74;98796.14;3928140;89;21182;-83
2021/12/25 21:14:52;;;;;;;88.90;34.37;;;;;;;-7.60;82.72;98800.89;3940355;88;21088;-83
2021/12/25 21:20:53;;;;;;;85.03;36.53;;;;;;;-7.79;82.84;98789.95;3950188;88;21206;-83
2021/12/25 21:26:55;;;;;;;108.90;41.30;;;;;;;-7.90;82.98;98792.83;3925969;89;21592;-85
2021/12/25 21:33:02;;;;;;;116.20;45.23;;;;;;;-8.01;82.94;98795.98;3940162;89;21076;-85
2021/12/25 21:39:08;;;;;;;89.63;36.13;;;;;;;-8.13;83.11;98805.48;3927943;89;21005;-83
2021/12/25 21:45:10;;;;;;;99.70;38.93;;;;;;;-8.28;83.01;98820.58;3918706;89;21068;-83
2021/12/25 21:51:12;;;;;;;103.30;39.07;;;;;;;-8.29;83.16;98820.33;3993682;87;21087;-83
2021/12/25 21:57:15;;;;;;;108.30;40.67;;;;;;;-8.44;82.67;98816.27;3999214;87;21577;-83
2021/12/25 22:03:20;;;;;;;113.97;45.70;;;;;;;-8.53;82.66;98819.92;4004122;87;21103;-83
2021/12/25 22:09:27;;;;;;;;;;;;;;;-8.72;82.96;98815.30;3993557;87;21111;-83
2021/12/25 22:15:28;;;;;;;124.97;47.63;;;;;;;-8.66;84.01;98821.69;3995887;87;20149;-84
2021/12/25 22:21:40;;;;;;;130.83;48.70;;;;;;;-8.85;82.41;98829.80;3994999;88;21596;-84
2021/12/25 22:27:46;;;;;;;148.00;54.97;;;;;;;-9.11;82.52;98824.00;3989424;88;21136;-84
2021/12/25 22:33:48;;;;;;;166.30;60.23;;;;;;;-9.19;82.78;98828.98;3984719;88;21038;-84
2021/12/25 22:39:51;;;;;;;248.17;81.43;;;;;;;-9.31;82.80;98830.97;3998428;88;22307;-84
2021/12/25 22:45:53;;;;;;;154.60;53.60;;;;;;;-9.38;82.79;98835.69;3979305;87;22102;-84
2021/12/25 22:51:54;;;;;;;125.70;47.40;;;;;;;-9.54;82.77;98841.87;3925434;89;21068;-84
2021/12/25 22:57:57;;;;;;;138.83;47.90;;;;;;;-9.67;82.72;98836.44;3933561;89;21067;-84
2021/12/25 23:03:58;;;;;;;171.23;56.57;;;;;;;-9.74;82.83;98827.09;3922496;89;21178;-84
2021/12/25 23:10:00;;;;;;;170.73;57.10;;;;;;;-9.88;82.67;98833.31;3910354;89;21750;-84
2021/12/25 23:16:03;;;;;;;162.17;53.47;;;;;;;-9.99;82.62;98847.48;3931518;89;21053;-84
2021/12/25 23:22:07;;;;;;;196.20;64.90;;;;;;;-10.17;82.32;98840.66;3846776;92;21875;-84
2021/12/25 23:28:09;;;;;;;165.77;54.67;;;;;;;-10.20;82.76;98842.99;3878963;90;21024;-84
2021/12/25 23:34:31;;;;;;;170.93;58.27;;;;;;;-10.29;82.52;98849.22;3923047;89;21088;-83
2021/12/25 23:40:38;;;;;;;272.33;82.20;;;;;;;-10.42;82.65;98848.78;3908905;90;21124;-84
2021/12/25 23:46:41;;;;;;;155.10;54.73;;;;;;;-10.37;82.85;98860.77;3922378;88;21534;-82
2021/12/25 23:52:47;;;;;;;158.97;51.73;;;;;;;-10.44;82.74;98858.80;3991706;87;21108;-82
2021/12/25 23:58:49;;;;;;;148.10;49.83;;;;;;;-10.51;82.52;98857.67;3985846;87;21149;-82
